Newton, IA

8:40 AM CDT on October 24, 2014 (GMT -0500)
Grinnell Regional | Change Station
CLOSE
Current Station
Airport
Location: Grinnell,
Elevation: 1007 ft
Nearby Weather Stations
Active Advisory: Dense Fog Advisory

Elev 1007 ft 41.71 °N, 92.73 °W | Updated 5 minutes ago

Fog
Fog
55 °F
Feels Like 55 °F
N
9
Wind Variable Wind from SSE

Today
High -- | Low -- °F
--% Chance of Precip.
Yesterday
High -- | Low -- °F
Precip. -- in
7:34 AM 6:17 PM
New Moon, 0% visible
Pressure 30.01 in
Visibility 0.2 miles
Clouds Overcast 100 ft
Dew Point 54 °F
Humidity 97%
Rainfall 0.01 in
Snow Depth Not available.
UV 0 out of 12
Pollen 2.20 out of 12
Air Quality Not available.
Flu Activity Sporadic
METAR KGGI 241335Z AUTO 16008KT M1/4SM DZ OVC001 13/12 A3001 RMK AO2 T01260122

More Conditions Fewer Conditions

Pressure 30.01 in
Visibility 0.2 miles
Clouds Overcast 100 ft
Dew Point 54 °F
Humidity 97%
Rainfall 0.01 in
Snow Depth Not available.
UV 0 out of 12
Pollen 2.20 out of 12
Air Quality Not available.
Flu Activity Sporadic
METAR KGGI 241335Z AUTO 16008KT M1/4SM DZ OVC001 13/12 A3001 RMK AO2 T01260122

More Conditions Fewer Conditions

10-Day Weather Forecast

Almanac

Astronomy

Oct. 24, 2014 Rise Set
Actual Time 7:34 AM CDT 6:17 PM CDT
Civil Twilight 7:06 AM CDT 6:45 PM CDT
Nautical Twilight 6:33 AM CDT 7:18 PM CDT
Astronomical Twilight 6:01 AM CDT 7:50 PM CDT
Moon 8:14 AM CDT 6:57 PM CDT
Length of Visible Light 11h 39m
Length of Day
10h 42m
Tomorrow will be 2m 34s shorter.
New Moon, 0% of the Moon is Illuminated
Today
New Moon
Oct 30
First Quarter
Nov 6
Full
Nov 14
Last Quarter
Nov 22
New

Today's Extremes

State Highs State Lows

Community

WunderPhotos

Upload Photos

1,764,551 photos uploaded!

WunderBlogs® & News

Nearby

Snow Depth

Station Depth Elevation
No new snow has been reported.

Earthquake Activity

City Distance Mag. Time & Date
No recent earthquake activity has been reported nearby.
Minimum magnitude displayed is 2.5.

Coastal Water Temperatures

Place Temperature
No Stations Reporting

Nearby Weather Stations